Time,TemperatureF,DewpointF,PressureIn,WindDirection,WindDirectionDegrees,WindSpeedMPH,WindSpeedGustMPH,Humidity,HourlyPrecipIn,Conditions,Clouds,dailyrainin,SolarRadiationWatts/m^2,SoftwareType,DateUTC
2013-04-20 00:09:00,60.0,59.0,29.19,NW,320,0.0,0.0,95,0.04,,,0.06,0,weatherlink.com 1.10,2013-04-20 04:09:00,
2013-04-20 00:24:00,60.0,59.0,29.21,WNW,295,0.0,1.0,95,0.05,,,0.07,0,weatherlink.com 1.10,2013-04-20 04:24:00,
2013-04-20 00:39:00,52.5,51.0,29.24,WNW,292,1.0,9.0,93,0.06,,,0.09,0,weatherlink.com 1.10,2013-04-20 04:39:00,
2013-04-20 00:54:00,51.1,49.0,29.24,WNW,292,0.0,4.0,93,0.08,,,0.12,0,weatherlink.com 1.10,2013-04-20 04:54:00,
2013-04-20 01:09:00,50.9,49.0,29.23,WNW,296,0.0,2.0,92,0.06,,,0.12,0,weatherlink.com 1.10,2013-04-20 05:09:00,
2013-04-20 01:25:00,50.6,48.0,29.23,WNW,295,0.0,1.0,91,0.05,,,0.12,0,weatherlink.com 1.10,2013-04-20 05:25:00,
2013-04-20 01:40:00,50.6,48.0,29.22,WNW,294,0.0,1.0,91,0.02,,,0.12,0,weatherlink.com 1.10,2013-04-20 05:40:00,
2013-04-20 01:56:00,50.6,48.0,29.22,WNW,291,1.0,4.0,90,0.00,,,0.12,0,weatherlink.com 1.10,2013-04-20 05:56:00,
2013-04-20 02:10:00,50.5,48.0,29.21,NNW,333,0.0,2.0,90,0.00,,,0.12,0,weatherlink.com 1.10,2013-04-20 06:10:00,
2013-04-20 02:25:00,50.4,48.0,29.21,NNW,332,0.0,1.0,91,0.00,,,0.12,0,weatherlink.com 1.10,2013-04-20 06:25:00,
2013-04-20 02:40:00,50.1,48.0,29.19,NW,315,0.0,2.0,91,0.00,,,0.12,0,weatherlink.com 1.10,2013-04-20 06:40:00,
2013-04-20 02:55:00,50.1,48.0,29.22,WNW,295,0.0,4.0,91,0.00,,,0.12,0,weatherlink.com 1.10,2013-04-20 06:55:00,
2013-04-20 03:10:00,49.9,48.0,29.24,West,281,1.0,1.0,92,0.01,,,0.13,0,weatherlink.com 1.10,2013-04-20 07:10:00,
2013-04-20 03:25:00,49.8,48.0,29.23,WNW,282,0.0,2.0,93,0.04,,,0.16,0,weatherlink.com 1.10,2013-04-20 07:25:00,
2013-04-20 03:40:00,49.5,48.0,29.23,WNW,296,0.0,2.0,93,0.05,,,0.17,0,weatherlink.com 1.10,2013-04-20 07:40:00,
2013-04-20 03:55:00,49.4,48.0,29.22,WNW,287,0.0,3.0,93,0.06,,,0.18,0,weatherlink.com 1.10,2013-04-20 07:55:00,
2013-04-20 04:10:00,49.2,48.0,29.24,WNW,286,0.0,3.0,94,0.05,,,0.18,0,weatherlink.com 1.10,2013-04-20 08:10:00,
2013-04-20 04:25:00,49.2,48.0,29.25,WNW,286,0.0,1.0,94,0.03,,,0.19,0,weatherlink.com 1.10,2013-04-20 08:25:00,
2013-04-20 04:40:00,49.2,48.0,29.26,WNW,286,0.0,1.0,94,0.02,,,0.19,0,weatherlink.com 1.10,2013-04-20 08:40:00,
2013-04-20 04:55:00,49.2,48.0,29.26,WNW,286,0.0,0.0,94,0.01,,,0.19,0,weatherlink.com 1.10,2013-04-20 08:55:00,
2013-04-20 05:10:00,48.9,47.0,29.27,WNW,286,0.0,1.0,94,0.01,,,0.19,0,weatherlink.com 1.10,2013-04-20 09:10:00,
2013-04-20 05:25:00,49.0,47.0,29.29,WNW,286,0.0,0.0,94,0.00,,,0.19,0,weatherlink.com 1.10,2013-04-20 09:25:00,
2013-04-20 05:40:00,48.9,47.0,29.30,West,272,0.0,1.0,94,0.00,,,0.19,0,weatherlink.com 1.10,2013-04-20 09:40:00,
2013-04-20 05:55:00,48.7,47.0,29.32,NNW,334,0.0,4.0,94,0.00,,,0.19,0,weatherlink.com 1.10,2013-04-20 09:55:00,
2013-04-20 06:10:00,47.1,46.0,29.33,North,355,0.0,3.0,94,0.00,,,0.19,0,weatherlink.com 1.10,2013-04-20 10:10:00,
2013-04-20 06:25:00,46.5,45.0,29.34,NNW,333,1.0,3.0,94,0.00,,,0.19,0,weatherlink.com 1.10,2013-04-20 10:25:00,
2013-04-20 06:40:00,45.6,44.0,29.36,NNW,342,0.0,4.0,94,0.00,,,0.19,5,weatherlink.com 1.10,2013-04-20 10:40:00,
2013-04-20 06:55:00,45.4,44.0,29.36,North,349,0.0,3.0,94,0.00,,,0.19,14,weatherlink.com 1.10,2013-04-20 10:55:00,
2013-04-20 07:10:00,45.2,44.0,29.37,NNW,344,0.0,1.0,94,0.00,,,0.19,25,weatherlink.com 1.10,2013-04-20 11:10:00,
2013-04-20 07:25:00,45.3,44.0,29.37,NNW,338,0.0,2.0,94,0.00,,,0.19,32,weatherlink.com 1.10,2013-04-20 11:25:00,
2013-04-20 07:40:00,45.5,44.0,29.37,NW,325,0.0,1.0,94,0.00,,,0.19,54,weatherlink.com 1.10,2013-04-20 11:40:00,
2013-04-20 07:55:00,45.9,44.0,29.38,NW,325,0.0,2.0,94,0.00,,,0.19,98,weatherlink.com 1.10,2013-04-20 11:55:00,
2013-04-20 08:10:00,46.2,44.0,29.38,NW,325,0.0,1.0,93,0.00,,,0.19,97,weatherlink.com 1.10,2013-04-20 12:10:00,
2013-04-20 08:25:00,46.9,45.0,29.39,NW,317,0.0,2.0,93,0.00,,,0.19,102,weatherlink.com 1.10,2013-04-20 12:25:00,
2013-04-20 08:40:00,49.6,47.0,29.38,NW,319,0.0,2.0,92,0.00,,,0.19,341,weatherlink.com 1.10,2013-04-20 12:40:00,
2013-04-20 08:55:00,50.7,47.0,29.38,NW,308,2.0,3.0,86,0.00,,,0.19,394,weatherlink.com 1.10,2013-04-20 12:55:00,
2013-04-20 09:10:00,50.7,46.0,29.38,North,5,0.0,4.0,83,0.00,,,0.19,441,weatherlink.com 1.10,2013-04-20 13:10:00,
2013-04-20 09:25:00,52.1,46.0,29.39,NW,317,1.0,4.0,80,0.00,,,0.19,272,weatherlink.com 1.10,2013-04-20 13:25:00,
2013-04-20 09:40:00,51.9,45.0,29.40,NW,311,0.0,5.0,78,0.00,,,0.19,264,weatherlink.com 1.10,2013-04-20 13:40:00,
2013-04-20 09:56:00,50.6,41.0,29.40,North,355,2.0,7.0,70,0.00,,,0.19,246,weatherlink.com 1.10,2013-04-20 13:56:00,
2013-04-20 10:11:00,51.2,41.0,29.42,WNW,294,0.0,5.0,67,0.00,,,0.19,297,weatherlink.com 1.10,2013-04-20 14:11:00,
2013-04-20 10:26:00,51.4,37.0,29.43,NNW,329,3.0,4.0,58,0.00,,,0.19,320,weatherlink.com 1.10,2013-04-20 14:26:00,
2013-04-20 10:41:00,51.2,39.0,29.45,NNW,333,5.0,8.0,63,0.00,,,0.19,357,weatherlink.com 1.10,2013-04-20 14:41:00,
2013-04-20 10:56:00,52.0,37.0,29.45,NNW,345,1.0,6.0,57,0.00,,,0.19,436,weatherlink.com 1.10,2013-04-20 14:56:00,
2013-04-20 11:11:00,52.1,34.0,29.46,WNW,292,2.0,4.0,51,0.00,,,0.19,276,weatherlink.com 1.10,2013-04-20 15:11:00,
2013-04-20 11:26:00,51.5,34.0,29.46,NW,309,2.0,9.0,52,0.00,,,0.19,264,weatherlink.com 1.10,2013-04-20 15:26:00,
2013-04-20 11:41:00,51.2,34.0,29.47,NW,319,0.0,8.0,52,0.00,,,0.19,227,weatherlink.com 1.10,2013-04-20 15:41:00,
2013-04-20 11:56:00,51.4,33.0,29.47,NNW,342,1.0,10.0,50,0.00,,,0.19,290,weatherlink.com 1.10,2013-04-20 15:56:00,
2013-04-20 12:11:00,51.8,33.0,29.47,ESE,110,1.0,4.0,49,0.00,,,0.19,338,weatherlink.com 1.10,2013-04-20 16:11:00,
2013-04-20 12:26:00,51.9,33.0,29.47,WNW,283,0.0,5.0,48,0.00,,,0.19,304,weatherlink.com 1.10,2013-04-20 16:26:00,
2013-04-20 12:41:00,51.7,33.0,29.47,WNW,297,1.0,5.0,49,0.00,,,0.19,406,weatherlink.com 1.10,2013-04-20 16:41:00,
2013-04-20 12:56:00,53.2,34.0,29.46,NNW,344,0.0,3.0,49,0.00,,,0.19,308,weatherlink.com 1.10,2013-04-20 16:56:00,
2013-04-20 13:11:00,53.4,33.0,29.46,WNW,300,1.0,7.0,46,0.00,,,0.19,603,weatherlink.com 1.10,2013-04-20 17:11:00,
2013-04-20 13:26:00,55.0,36.0,29.46,West,265,0.0,5.0,49,0.00,,,0.19,856,weatherlink.com 1.10,2013-04-20 17:26:00,
2013-04-20 13:41:00,55.4,35.0,29.46,NW,320,2.0,5.0,47,0.00,,,0.19,264,weatherlink.com 1.10,2013-04-20 17:41:00,
2013-04-20 13:56:00,55.1,33.0,29.46,NNW,333,1.0,6.0,43,0.00,,,0.19,195,weatherlink.com 1.10,2013-04-20 17:56:00,
2013-04-20 14:11:00,57.2,35.0,29.46,WNW,284,1.0,4.0,44,0.00,,,0.19,360,weatherlink.com 1.10,2013-04-20 18:11:00,
2013-04-20 14:26:00,56.6,32.0,29.46,WNW,292,1.0,6.0,40,0.00,,,0.19,622,weatherlink.com 1.10,2013-04-20 18:26:00,
2013-04-20 14:41:00,57.2,33.0,29.46,WNW,303,0.0,6.0,41,0.00,,,0.19,573,weatherlink.com 1.10,2013-04-20 18:41:00,
2013-04-20 14:56:00,57.1,33.0,29.47,WNW,284,2.0,12.0,40,0.00,,,0.19,90,weatherlink.com 1.10,2013-04-20 18:56:00,
2013-04-20 15:11:00,56.6,32.0,29.47,NW,308,1.0,6.0,39,0.00,,,0.19,216,weatherlink.com 1.10,2013-04-20 19:11:00,
2013-04-20 15:26:00,56.6,32.0,29.47,WNW,284,1.0,7.0,40,0.00,,,0.19,378,weatherlink.com 1.10,2013-04-20 19:26:00,
2013-04-20 15:41:00,57.0,32.0,29.48,WNW,287,1.0,10.0,39,0.00,,,0.19,348,weatherlink.com 1.10,2013-04-20 19:41:00,
2013-04-20 15:56:00,57.3,31.0,29.48,WNW,299,3.0,7.0,37,0.00,,,0.19,190,weatherlink.com 1.10,2013-04-20 19:56:00,
2013-04-20 16:11:00,56.8,32.0,29.49,WNW,300,3.0,6.0,39,0.00,,,0.19,195,weatherlink.com 1.10,2013-04-20 20:11:00,
2013-04-20 16:26:00,56.5,33.0,29.50,NNW,327,0.0,6.0,41,0.00,,,0.19,118,weatherlink.com 1.10,2013-04-20 20:26:00,
2013-04-20 16:41:00,55.9,30.0,29.50,North,355,2.0,7.0,37,0.00,,,0.19,98,weatherlink.com 1.10,2013-04-20 20:41:00,
2013-04-20 16:56:00,56.0,30.0,29.51,WNW,283,1.0,9.0,37,0.00,,,0.19,84,weatherlink.com 1.10,2013-04-20 20:56:00,
2013-04-20 17:11:00,56.2,29.0,29.52,NW,304,5.0,8.0,36,0.00,,,0.19,105,weatherlink.com 1.10,2013-04-20 21:11:00,
2013-04-20 17:26:00,55.7,30.0,29.52,NNW,331,1.0,8.0,37,0.00,,,0.19,93,weatherlink.com 1.10,2013-04-20 21:26:00,
2013-04-20 17:41:00,55.9,30.0,29.53,WNW,297,4.0,7.0,38,0.00,,,0.19,100,weatherlink.com 1.10,2013-04-20 21:41:00,
2013-04-20 17:56:00,55.4,29.0,29.54,NW,317,1.0,5.0,36,0.00,,,0.19,134,weatherlink.com 1.10,2013-04-20 21:56:00,
2013-04-20 18:11:00,54.9,30.0,29.55,WNW,302,0.0,4.0,38,0.00,,,0.00,60,weatherlink.com 1.10,2013-04-20 22:11:00,
2013-04-20 18:26:00,54.7,29.0,29.56,NW,305,0.0,7.0,37,0.00,,,0.00,79,weatherlink.com 1.10,2013-04-20 22:26:00,
2013-04-20 18:41:00,54.5,28.0,29.56,NNW,340,1.0,5.0,36,0.00,,,0.00,56,weatherlink.com 1.10,2013-04-20 22:41:00,
2013-04-20 18:56:00,53.4,26.0,29.57,WNW,302,0.0,7.0,35,0.00,,,0.00,16,weatherlink.com 1.10,2013-04-20 22:56:00,
2013-04-20 19:12:00,52.5,27.0,29.58,NW,313,0.0,3.0,38,0.00,,,0.00,16,weatherlink.com 1.10,2013-04-20 23:12:00,
2013-04-20 19:27:00,52.4,27.0,29.59,NW,318,0.0,1.0,38,0.00,,,0.00,12,weatherlink.com 1.10,2013-04-20 23:27:00,
2013-04-20 19:42:00,52.2,28.0,29.60,WNW,284,2.0,2.0,40,0.00,,,0.00,0,weatherlink.com 1.10,2013-04-20 23:42:00,
2013-04-20 19:57:00,51.6,26.0,29.62,NW,305,0.0,4.0,37,0.00,,,0.00,0,weatherlink.com 1.10,2013-04-20 23:57:00,
2013-04-20 20:12:00,51.1,27.0,29.63,NNW,335,2.0,5.0,40,0.00,,,0.00,0,weatherlink.com 1.10,2013-04-21 00:12:00,
2013-04-20 20:27:00,50.6,28.0,29.64,NW,321,0.0,4.0,42,0.00,,,0.00,0,weatherlink.com 1.10,2013-04-21 00:27:00,
2013-04-20 20:42:00,49.8,27.0,29.66,WNW,292,1.0,4.0,42,0.00,,,0.00,0,weatherlink.com 1.10,2013-04-21 00:42:00,
2013-04-20 20:57:00,49.5,28.0,29.67,WNW,284,1.0,4.0,43,0.00,,,0.00,0,weatherlink.com 1.10,2013-04-21 00:57:00,
2013-04-20 21:12:00,49.1,27.0,29.69,WNW,303,0.0,5.0,43,0.00,,,0.00,0,weatherlink.com 1.10,2013-04-21 01:12:00,
2013-04-20 21:27:00,48.5,27.0,29.70,NNW,338,5.0,5.0,44,0.00,,,0.00,0,weatherlink.com 1.10,2013-04-21 01:27:00,
2013-04-20 21:42:00,47.9,27.0,29.71,NNW,327,1.0,4.0,45,0.00,,,0.00,0,weatherlink.com 1.10,2013-04-21 01:42:00,
2013-04-20 21:57:00,47.5,27.0,29.73,NNW,333,4.0,5.0,46,0.00,,,0.00,0,weatherlink.com 1.10,2013-04-21 01:57:00,
2013-04-20 22:12:00,47.0,27.0,29.73,NW,309,2.0,7.0,46,0.00,,,0.00,0,weatherlink.com 1.10,2013-04-21 02:12:00,
2013-04-20 22:27:00,46.5,27.0,29.74,NNW,338,2.0,6.0,47,0.00,,,0.00,0,weatherlink.com 1.10,2013-04-21 02:27:00,
2013-04-20 22:42:00,45.8,28.0,29.75,NW,309,2.0,5.0,50,0.00,,,0.00,0,weatherlink.com 1.10,2013-04-21 02:42:00,
2013-04-20 22:57:00,45.5,28.0,29.75,NW,318,0.0,7.0,50,0.00,,,0.00,0,weatherlink.com 1.10,2013-04-21 02:57:00,
2013-04-20 23:12:00,44.6,28.0,29.77,NW,313,1.0,7.0,52,0.00,,,0.00,0,weatherlink.com 1.10,2013-04-21 03:12:00,
2013-04-20 23:27:00,43.9,26.0,29.78,NW,319,1.0,6.0,49,0.00,,,0.00,0,weatherlink.com 1.10,2013-04-21 03:27:00,
2013-04-20 23:43:00,43.0,25.0,29.78,NNW,334,2.0,8.0,49,0.00,,,0.00,0,weatherlink.com 1.10,2013-04-21 03:43:00,
2013-04-20 23:58:00,42.2,23.0,29.80,NW,310,2.0,9.0,47,0.00,,,0.00,0,weatherlink.com 1.10,2013-04-21 03:58:00,